logo
Search for airport 
image banner adimage banner adimage banner ad
image banner ad

SSAZ - Quatro Barras Heliport

Located in Quatro Barras, Brazil

ICAO - SSAZ, IATA -

Data provided by Airmate  

General information

Coordinates: S5°44'17" W35°13'7"
Elevation is 16 feet MSL.
Magnetic variation is -20° East
View others Airports in Rio Grande do Norte

Operational data

Special qualification required
Current time UTC:
Current local time:
Weather at : SBSG - Governador Aluizio Alves ( 17 km )
METAR: SBSG 021700Z 16016KT 9999 SCT040 31/21 Q1012
TAF: TAF SBSG 020859Z 0212/0312 12012G25KT 9999 SCT020 TX31/0216Z TN24/0308Z TEMPO 0301/0309 15007KT RMK PGX
View NOTAMs / SUP AIP / TFR affecting this airport [VIEW]
Communications frequencies: [VIEW]

Runways:

RWY identifierQFULength (ft)Width (ft)SurfaceLDA (ft)
17131259GRASS
35131259GRASS

Airport contact information

Address: Quatro Barras Brazil

Satellite view of SSAZ